Log in Register

Login to your account

Username *
Password *
Remember Me

Create an account

Fields marked with an asterisk (*) are required.
Name *
Username *
Password *
Verify password *
Email *
Verify email *

Please enter the email address for your account. A verification code will be sent to you. Once you have received the verification code, you will be able to choose a new password for your account.

Nous contacter

 Téléphone : +33 (0)4 79 54 41 81

Coordonnées détaillées et accès : cliquez ici

 
LFLB °C
    Ferienhaus Ostsee
[source: ADDS]
METAR
LFLB 220930Z AUTO 35006KT CAVOK 15/07 Q1019 NOSIG =
TAF LFLB 220800Z 2209/2309 36007KT 9999 FEW050 TEMPO 2212/2217 FEW060TCU BECMG 2217/2219 36012KT CAVOK
TAF
TAF LFLB 220800Z 2209/2309 36007KT 9999 FEW050 TEMPO 2212/2217 FEW060TCU BECMG 2217/2219 36012KT CAVOK =
SR / SS: 04:38 / 18:31 UTC (Lever/Coucher du soleil le 2021-04-22)
JSN Boot template designed by JoomlaShine.com